createdAt,value
2017-07-04T00:00:14.794Z,72.56
2017-07-04T00:01:14.768Z,73.04
2017-07-04T00:02:14.762Z,73.14
2017-07-04T00:03:14.734Z,73.04
2017-07-04T00:04:14.719Z,72.95
2017-07-04T00:05:14.694Z,72.85
2017-07-04T00:06:14.676Z,72.95
2017-07-04T00:07:14.654Z,73.33
2017-07-04T00:08:14.640Z,73.33
2017-07-04T00:09:14.619Z,73.24
2017-07-04T00:10:14.605Z,73.33
2017-07-04T00:11:14.575Z,73.33
2017-07-04T00:12:14.557Z,73.04
2017-07-04T00:13:14.544Z,73.72
2017-07-04T00:14:14.519Z,73.81
2017-07-04T00:15:14.189Z,73.81
2017-07-04T00:16:14.479Z,73.91
2017-07-04T00:17:14.462Z,74.19
2017-07-04T00:18:14.436Z,73.91
2017-07-04T00:19:14.418Z,74.39
2017-07-04T00:20:14.398Z,74.39
2017-07-04T00:21:14.378Z,74.06
2017-07-04T00:22:14.359Z,73.97
2017-07-04T00:23:14.338Z,73.81
2017-07-04T00:24:14.318Z,74.16
2017-07-04T00:25:13.993Z,74.06
2017-07-04T00:26:14.280Z,74.01
2017-07-04T00:27:14.260Z,74.16
2017-07-04T00:28:14.240Z,74.06
2017-07-04T00:29:13.917Z,73.77
2017-07-04T00:30:14.206Z,73.81
2017-07-04T00:31:14.184Z,73.97
2017-07-04T00:32:14.161Z,73.97
2017-07-04T00:33:14.141Z,74.16
2017-07-04T00:34:14.121Z,74.06
2017-07-04T00:35:14.098Z,74.16
2017-07-04T00:36:14.080Z,74.06
2017-07-04T00:37:14.061Z,74.35
2017-07-04T00:38:14.045Z,74.35
2017-07-04T00:39:14.025Z,74.26
2017-07-04T00:40:13.999Z,74.64
2017-07-04T00:41:13.981Z,74.73
2017-07-04T00:42:14.007Z,75.02
2017-07-04T00:43:13.950Z,74.73
2017-07-04T00:44:13.923Z,74.93
2017-07-04T00:45:13.907Z,74.64
2017-07-04T00:46:13.880Z,74.73
2017-07-04T00:47:13.859Z,74.73
2017-07-04T00:48:13.845Z,74.73
2017-07-04T00:49:13.823Z,75.4
2017-07-04T00:50:13.812Z,75.31
2017-07-04T00:51:13.784Z,75.12
2017-07-04T00:52:13.762Z,75.79
2017-07-04T00:53:13.432Z,75.79
2017-07-04T00:54:13.722Z,75.7
2017-07-04T00:55:13.703Z,75.79
2017-07-04T00:56:13.689Z,75.65
2017-07-04T00:57:13.678Z,75.85
2017-07-04T00:58:13.643Z,75.85
2017-07-04T00:59:13.621Z,75.65
2017-07-04T01:00:13.601Z,75.95
2017-07-04T01:01:13.579Z,76.14
2017-07-04T01:02:13.560Z,76.56
2017-07-04T01:03:13.539Z,76.17
2017-07-04T01:04:13.520Z,75.98
2017-07-04T01:05:13.503Z,75.98
2017-07-04T01:06:13.480Z,76.71
2017-07-04T01:07:13.173Z,76.62
2017-07-04T01:08:13.437Z,76.71
2017-07-04T01:09:13.432Z,76.71
2017-07-04T01:10:13.403Z,76.42
2017-07-04T01:11:13.379Z,77
2017-07-04T01:12:13.362Z,76.81
2017-07-04T01:13:13.345Z,77.19
2017-07-04T01:14:13.325Z,76.81
2017-07-04T01:15:13.302Z,77.09
2017-07-04T01:16:12.974Z,76.81
2017-07-04T01:17:13.313Z,76.81
2017-07-04T01:18:13.242Z,77.38
2017-07-04T01:19:13.223Z,77.48
2017-07-04T01:20:13.197Z,77.29
2017-07-04T01:21:13.179Z,77.09
2017-07-04T01:22:13.162Z,77.19
2017-07-04T01:23:13.148Z,77.86
2017-07-04T01:24:13.127Z,77.95
2017-07-04T01:25:13.102Z,77.86
2017-07-04T01:26:13.079Z,77.48
2017-07-04T01:27:13.066Z,77.95
2017-07-04T01:28:13.039Z,78.05
2017-07-04T01:29:13.021Z,78.15
2017-07-04T01:30:13.004Z,78.25
2017-07-04T01:31:12.985Z,78.25
2017-07-04T01:32:12.965Z,78.44
2017-07-04T01:33:12.946Z,78.53
2017-07-04T01:34:13.166Z,78.44
2017-07-04T01:35:12.590Z,78.53
2017-07-04T01:36:12.877Z,78.72
2017-07-04T01:37:12.864Z,78.82
2017-07-04T01:38:12.839Z,79.21
2017-07-04T01:39:12.820Z,79.01
2017-07-04T01:40:12.799Z,79.39
2017-07-04T01:41:12.783Z,79.26
2017-07-04T01:42:12.759Z,79.16
2017-07-04T01:43:12.744Z,79.26
2017-07-04T01:44:12.715Z,79.55
2017-07-04T01:45:12.695Z,78.97
2017-07-04T01:46:12.675Z,79.83
2017-07-04T01:47:12.661Z,79.83
2017-07-04T01:48:12.639Z,79.45
2017-07-04T01:49:12.622Z,79.93
2017-07-04T01:50:12.639Z,79.64
2017-07-04T01:51:12.597Z,80.12
2017-07-04T01:52:12.554Z,80.12
2017-07-04T01:53:12.556Z,80.22
2017-07-04T01:54:12.203Z,80.6
2017-07-04T01:55:12.491Z,80.51
2017-07-04T01:56:12.476Z,80.64
2017-07-04T01:57:12.457Z,80.32
2017-07-04T01:58:12.433Z,80.74
2017-07-04T01:59:12.415Z,80.74
2017-07-04T02:00:12.390Z,80.45
2017-07-04T02:01:12.368Z,80.83
2017-07-04T02:02:12.352Z,81.02
2017-07-04T02:03:12.336Z,81.02
2017-07-04T02:04:12.317Z,80.83
2017-07-04T02:05:12.294Z,80.93
2017-07-04T02:06:12.269Z,80.83
2017-07-04T02:07:12.502Z,81.02
2017-07-04T02:08:12.234Z,80.93
2017-07-04T02:09:12.209Z,80.83
2017-07-04T02:10:12.185Z,80.83
2017-07-04T02:11:12.168Z,80.64
2017-07-04T02:12:12.154Z,80.64
2017-07-04T02:13:12.135Z,80.93
2017-07-04T02:14:12.117Z,80.64
2017-07-04T02:15:12.089Z,80.83
2017-07-04T02:16:12.067Z,81.02
2017-07-04T02:17:12.047Z,80.83
2017-07-04T02:18:12.033Z,80.83
2017-07-04T02:19:12.011Z,80.64
2017-07-04T02:20:11.993Z,80.74
2017-07-04T02:21:11.966Z,80.45
2017-07-04T02:22:11.947Z,80.64
2017-07-04T02:23:11.932Z,80.26
2017-07-04T02:24:11.907Z,80.64
2017-07-04T02:25:11.887Z,80.35
2017-07-04T02:26:11.870Z,80.16
2017-07-04T02:27:11.845Z,79.97
2017-07-04T02:28:11.830Z,80.07
2017-07-04T02:29:11.806Z,79.97
2017-07-04T02:30:11.788Z,80.45
2017-07-04T02:31:11.766Z,80.45
2017-07-04T02:32:11.748Z,80.32
2017-07-04T02:33:11.728Z,80.16
2017-07-04T02:34:11.717Z,80.55
2017-07-04T02:35:11.690Z,80.26
2017-07-04T02:36:11.666Z,80.35
2017-07-04T02:37:11.649Z,80.12
2017-07-04T02:38:11.631Z,80.22
2017-07-04T02:39:11.602Z,80.22
2017-07-04T02:40:11.585Z,80.22
2017-07-04T02:41:11.562Z,80.07
2017-07-04T02:42:11.548Z,80.22
2017-07-04T02:43:11.524Z,80.22
2017-07-04T02:44:11.502Z,79.93
2017-07-04T02:45:11.487Z,80.03
2017-07-04T02:46:11.466Z,79.83
2017-07-04T02:47:11.444Z,79.83
2017-07-04T02:48:11.424Z,80.45
2017-07-04T02:49:11.402Z,80.51
2017-07-04T02:50:11.386Z,80.32
2017-07-04T02:51:11.364Z,80.55
2017-07-04T02:52:11.348Z,80.6
2017-07-04T02:53:11.333Z,80.64
2017-07-04T02:54:11.300Z,80.55
2017-07-04T02:55:11.286Z,80.7
2017-07-04T02:56:11.514Z,80.64
2017-07-04T02:57:11.243Z,80.6
2017-07-04T02:58:11.228Z,80.79
2017-07-04T02:59:11.202Z,80.83
2017-07-04T03:00:11.188Z,80.74
2017-07-04T03:01:11.164Z,80.83
2017-07-04T03:02:11.142Z,80.93
2017-07-04T03:03:11.129Z,81.02
2017-07-04T03:04:11.102Z,81.12
2017-07-04T03:05:11.086Z,80.83
2017-07-04T03:06:11.064Z,80.93
2017-07-04T03:07:11.345Z,80.83
2017-07-04T03:08:11.021Z,80.74
2017-07-04T03:09:11.005Z,80.55
2017-07-04T03:10:10.980Z,80.74
2017-07-04T03:11:10.961Z,80.83
2017-07-04T03:12:10.946Z,80.83
2017-07-04T03:13:10.918Z,81.79
2017-07-04T03:14:10.905Z,81.7
2017-07-04T03:15:10.883Z,81.98
2017-07-04T03:16:10.858Z,81.7
2017-07-04T03:17:10.842Z,81.41
2017-07-04T03:18:11.070Z,81.6
2017-07-04T03:19:10.803Z,81.31
2017-07-04T03:20:10.785Z,81.6
2017-07-04T03:21:10.765Z,81.6
2017-07-04T03:22:10.742Z,81.51
2017-07-04T03:23:10.769Z,81.79
2017-07-04T03:24:10.392Z,81.41
2017-07-04T03:25:10.986Z,81.79
2017-07-04T03:26:10.657Z,81.79
2017-07-04T03:27:10.643Z,81.79
2017-07-04T03:28:10.619Z,81.79
2017-07-04T03:29:10.598Z,81.98
2017-07-04T03:30:10.573Z,81.98
2017-07-04T03:31:10.557Z,81.89
2017-07-04T03:32:10.542Z,81.98
2017-07-04T03:33:10.516Z,81.79
2017-07-04T03:34:10.494Z,81.89
2017-07-04T03:35:10.481Z,82.56
2017-07-04T03:36:10.459Z,82.27
2017-07-04T03:37:10.436Z,82.37
2017-07-04T03:38:10.417Z,82.27
2017-07-04T03:39:10.398Z,81.98
2017-07-04T03:40:10.375Z,82.37
2017-07-04T03:41:10.354Z,82.37
2017-07-04T03:42:10.334Z,82.37
2017-07-04T03:43:10.315Z,82.18
2017-07-04T03:44:10.297Z,82.18
2017-07-04T03:45:10.276Z,82.27
2017-07-04T03:46:09.951Z,82.56
2017-07-04T03:47:09.931Z,82.37
2017-07-04T03:48:10.217Z,82.37
2017-07-04T03:49:10.195Z,82.56
2017-07-04T03:50:10.178Z,82.18
2017-07-04T03:51:10.153Z,82.46
2017-07-04T03:52:10.136Z,82.56
2017-07-04T03:53:10.115Z,82.27
2017-07-04T03:54:10.091Z,82.18
2017-07-04T03:55:10.080Z,83.33
2017-07-04T03:56:10.064Z,82.46
2017-07-04T03:57:10.035Z,82.27
2017-07-04T03:58:10.024Z,82.27
2017-07-04T03:59:09.999Z,82.27
2017-07-04T04:00:09.970Z,82.18
2017-07-04T04:01:09.952Z,81.98
2017-07-04T04:02:09.985Z,82.94
2017-07-04T04:03:09.915Z,82.08
2017-07-04T04:04:09.893Z,82.94
2017-07-04T04:05:09.874Z,83.04
2017-07-04T04:06:09.854Z,82.85
2017-07-04T04:07:09.832Z,82.65
2017-07-04T04:08:09.817Z,83.33
2017-07-04T04:09:09.487Z,82.75
2017-07-04T04:10:09.776Z,83.14
2017-07-04T04:11:09.753Z,82.85
2017-07-04T04:12:09.737Z,83.52
2017-07-04T04:13:09.712Z,82.85
2017-07-04T04:14:09.693Z,83.61
2017-07-04T04:15:09.369Z,83.61
2017-07-04T04:16:09.654Z,83.23
2017-07-04T04:17:09.326Z,83.52
2017-07-04T04:18:09.304Z,83.04
2017-07-04T04:19:09.592Z,83.61
2017-07-04T04:20:09.571Z,83.61
2017-07-04T04:21:09.567Z,83.33
2017-07-04T04:22:09.532Z,83.33
2017-07-04T04:23:09.511Z,83.23
2017-07-04T04:24:09.495Z,83.56
2017-07-04T04:25:09.474Z,83.37
2017-07-04T04:26:09.456Z,83.42
2017-07-04T04:27:09.435Z,84
2017-07-04T04:28:09.472Z,83.91
2017-07-04T04:29:09.392Z,83.61
2017-07-04T04:30:09.375Z,83.85
2017-07-04T04:31:09.354Z,83.65
2017-07-04T04:32:09.333Z,83.37
2017-07-04T04:33:09.310Z,82.98
2017-07-04T04:34:09.295Z,83.27
2017-07-04T04:35:09.275Z,83.08
2017-07-04T04:36:09.254Z,83.27
2017-07-04T04:37:09.234Z,82.98
2017-07-04T04:38:09.220Z,83.08
2017-07-04T04:39:09.199Z,83.41
2017-07-04T04:40:09.179Z,82.93
2017-07-04T04:41:09.157Z,82.26
2017-07-04T04:42:09.135Z,82.54
2017-07-04T04:43:09.118Z,82.54
2017-07-04T04:44:09.093Z,82.35
2017-07-04T04:45:08.770Z,82.93
2017-07-04T04:46:09.056Z,82.49
2017-07-04T04:47:09.041Z,82.2
2017-07-04T04:48:09.046Z,81.82
2017-07-04T04:49:08.999Z,81.63
2017-07-04T04:50:08.983Z,81.72
2017-07-04T04:51:08.970Z,81.53
2017-07-04T04:52:08.688Z,81.92
2017-07-04T04:53:08.924Z,81.63
2017-07-04T04:54:08.912Z,81.92
2017-07-04T04:55:08.887Z,81.82
2017-07-04T04:56:08.864Z,81.72
2017-07-04T04:57:08.848Z,81.49
2017-07-04T04:58:08.824Z,81.87
2017-07-04T04:59:08.806Z,82.07
2017-07-04T05:00:08.787Z,82.07
2017-07-04T05:01:08.768Z,82.16
2017-07-04T05:02:08.754Z,82.84
2017-07-04T05:03:08.733Z,82.45
2017-07-04T05:04:08.712Z,82.54
2017-07-04T05:05:08.693Z,82.64
2017-07-04T05:06:08.364Z,82.45
2017-07-04T05:07:08.649Z,83.22
2017-07-04T05:08:08.326Z,82.79
2017-07-04T05:09:08.640Z,83.65
2017-07-04T05:10:08.597Z,83.85
2017-07-04T05:11:08.573Z,83.75
2017-07-04T05:12:08.552Z,83.65
2017-07-04T05:13:08.534Z,84.04
2017-07-04T05:14:08.515Z,84.23
2017-07-04T05:15:08.499Z,84.04
2017-07-04T05:16:08.478Z,84.52
2017-07-04T05:17:08.453Z,84.33
2017-07-04T05:18:08.438Z,84.61
2017-07-04T05:19:08.430Z,84.23
2017-07-04T05:20:08.394Z,84.23
2017-07-04T05:21:08.384Z,84.33
2017-07-04T05:22:08.360Z,84.33
2017-07-04T05:23:08.335Z,84.42
2017-07-04T05:24:08.322Z,84.33
2017-07-04T05:25:08.004Z,84.42
2017-07-04T05:26:08.278Z,84.14
2017-07-04T05:27:08.259Z,83.65
2017-07-04T05:28:08.239Z,83.47
2017-07-04T05:29:08.224Z,83.85
2017-07-04T05:30:08.201Z,83.65
2017-07-04T05:31:08.183Z,83.65
2017-07-04T05:32:08.169Z,83.65
2017-07-04T05:33:08.143Z,83.18
2017-07-04T05:34:08.167Z,82.98
2017-07-04T05:35:08.101Z,82.7
2017-07-04T05:36:08.087Z,83.08
2017-07-04T05:37:08.064Z,82.7
2017-07-04T05:38:08.043Z,82.7
2017-07-04T05:39:08.025Z,82.03
2017-07-04T05:40:08.005Z,82.31
2017-07-04T05:41:07.987Z,82.7
2017-07-04T05:42:07.970Z,82.31
2017-07-04T05:43:07.947Z,82.41
2017-07-04T05:44:07.919Z,82.31
2017-07-04T05:45:07.905Z,82.12
2017-07-04T05:46:07.886Z,81.84
2017-07-04T05:47:07.862Z,81.93
2017-07-04T05:48:07.843Z,81.84
2017-07-04T05:49:07.823Z,81.35
2017-07-04T05:50:07.806Z,81.84
2017-07-04T05:51:07.783Z,81.84
2017-07-04T05:52:07.761Z,81.07
2017-07-04T05:53:07.745Z,81.07
2017-07-04T05:54:07.728Z,80.87
2017-07-04T05:55:07.706Z,81.16
2017-07-04T05:56:07.685Z,80.97
2017-07-04T05:57:07.711Z,81.26
2017-07-04T05:58:07.338Z,80.97
2017-07-04T05:59:07.680Z,80.91
2017-07-04T06:00:07.612Z,81.01
2017-07-04T06:01:07.592Z,81.1
2017-07-04T06:02:07.566Z,80.63
2017-07-04T06:03:07.247Z,80.63
2017-07-04T06:04:07.531Z,80.53
2017-07-04T06:05:07.514Z,80.68
2017-07-04T06:06:07.492Z,80.68
2017-07-04T06:07:07.469Z,80.49
2017-07-04T06:08:07.458Z,80.3
2017-07-04T06:09:07.430Z,80.87
2017-07-04T06:10:07.412Z,81.26
2017-07-04T06:11:07.391Z,81.16
2017-07-04T06:12:07.379Z,80.87
2017-07-04T06:13:07.357Z,81.07
2017-07-04T06:14:07.331Z,80.49
2017-07-04T06:15:07.320Z,80.68
2017-07-04T06:16:07.293Z,80.58
2017-07-04T06:17:07.277Z,80.58
2017-07-04T06:18:07.259Z,80.58
2017-07-04T06:19:07.240Z,79.91
2017-07-04T06:20:07.216Z,80.4
2017-07-04T06:21:07.200Z,80.3
2017-07-04T06:22:07.171Z,79.82
2017-07-04T06:23:07.160Z,79.82
2017-07-04T06:24:07.145Z,80.01
2017-07-04T06:25:07.115Z,80.2
2017-07-04T06:26:07.097Z,80.4
2017-07-04T06:27:07.086Z,79.82
2017-07-04T06:28:07.065Z,80.3
2017-07-04T06:29:07.039Z,80.4
2017-07-04T06:30:07.016Z,81.02
2017-07-04T06:31:07.004Z,80.68
2017-07-04T06:32:06.981Z,80.49
2017-07-04T06:33:06.959Z,81.16
2017-07-04T06:34:06.948Z,80.83
2017-07-04T06:35:06.924Z,80.55
2017-07-04T06:36:06.902Z,80.68
2017-07-04T06:37:06.881Z,80.45
2017-07-04T06:38:06.916Z,80.55
2017-07-04T06:39:06.841Z,81.12
2017-07-04T06:40:06.819Z,80.83
2017-07-04T06:41:06.807Z,80.45
2017-07-04T06:42:06.783Z,80.26
2017-07-04T06:43:06.764Z,80.16
2017-07-04T06:44:06.745Z,80.26
2017-07-04T06:45:06.719Z,79.59
2017-07-04T06:46:06.395Z,79.59
2017-07-04T06:47:06.688Z,79.39
2017-07-04T06:48:06.660Z,79.88
2017-07-04T06:49:06.643Z,79.59
2017-07-04T06:50:06.623Z,79.88
2017-07-04T06:51:06.604Z,79.49
2017-07-04T06:52:06.583Z,79.39
2017-07-04T06:53:06.562Z,79.78
2017-07-04T06:54:06.545Z,79.78
2017-07-04T06:55:06.525Z,79.68
2017-07-04T06:56:06.721Z,79.39
2017-07-04T06:57:06.481Z,79.97
2017-07-04T06:58:06.459Z,80.26
2017-07-04T06:59:06.454Z,79.88
2017-07-04T07:00:06.121Z,79.78
2017-07-04T07:01:06.406Z,79.49
2017-07-04T07:02:06.435Z,79.59
2017-07-04T07:03:06.415Z,79.88
2017-07-04T07:04:06.352Z,79.68
2017-07-04T07:05:06.323Z,79.59
2017-07-04T07:06:06.304Z,79.68
2017-07-04T07:07:06.281Z,79.88
2017-07-04T07:08:06.273Z,79.68
2017-07-04T07:09:06.292Z,79.21
2017-07-04T07:10:06.225Z,79.78
2017-07-04T07:11:20.813Z,79.49
2017-07-04T07:12:06.184Z,79.01
2017-07-04T07:13:06.163Z,78.72
2017-07-04T07:14:06.148Z,78.44
2017-07-04T07:15:06.123Z,78.53
2017-07-04T07:16:06.108Z,78.44
2017-07-04T07:17:06.085Z,78.44
2017-07-04T07:18:06.070Z,79.01
2017-07-04T07:19:06.048Z,79.78
2017-07-04T07:20:06.031Z,78.82
2017-07-04T07:21:06.008Z,78.72
2017-07-04T07:22:05.988Z,78.63
2017-07-04T07:23:05.965Z,78.72
2017-07-04T07:24:06.051Z,79.01
2017-07-04T07:25:05.931Z,78.92
2017-07-04T07:26:05.909Z,79.21
2017-07-04T07:27:05.886Z,79.11
2017-07-04T07:28:05.869Z,79.39
2017-07-04T07:29:05.895Z,79.01
2017-07-04T07:30:05.834Z,79.63
2017-07-04T07:31:05.809Z,79.34
2017-07-04T07:32:05.789Z,79.68
2017-07-04T07:33:05.770Z,80.07
2017-07-04T07:34:05.745Z,79.63
2017-07-04T07:35:05.737Z,79.63
2017-07-04T07:36:05.713Z,79.63
2017-07-04T07:37:05.688Z,79.63
2017-07-04T07:38:05.669Z,80.01
2017-07-04T07:39:05.652Z,79.72
2017-07-04T07:40:05.630Z,79.82
2017-07-04T07:41:05.609Z,79.72
2017-07-04T07:42:05.591Z,80.01
2017-07-04T07:43:05.676Z,79.63
2017-07-04T07:44:05.653Z,80.01
2017-07-04T07:45:05.535Z,79.82
2017-07-04T07:46:05.515Z,79.53
2017-07-04T07:47:05.497Z,79.34
2017-07-04T07:48:05.587Z,79.44
2017-07-04T07:49:05.550Z,78.96
2017-07-04T07:50:05.439Z,78.86
2017-07-04T07:51:05.416Z,78.96
2017-07-04T07:52:05.398Z,79.14
2017-07-04T07:53:05.380Z,78.96
2017-07-04T07:54:05.372Z,79.05
2017-07-04T07:55:05.335Z,78.86
2017-07-04T07:56:05.325Z,78.99
2017-07-04T07:57:05.314Z,78.42
2017-07-04T07:58:05.280Z,78.23
2017-07-04T07:59:05.264Z,78.03
2017-07-04T08:00:05.247Z,77.75
2017-07-04T08:01:05.223Z,77.56
2017-07-04T08:02:05.211Z,77.84
2017-07-04T08:03:05.181Z,77.08
2017-07-04T08:04:05.173Z,77.11
2017-07-04T08:07:37.048Z,76.15
2017-07-04T08:08:36.854Z,75.81
2017-07-04T08:09:36.825Z,75.62
2017-07-04T08:10:36.808Z,75.42
2017-07-04T08:11:36.489Z,74.94
2017-07-04T08:12:36.472Z,75.42
2017-07-04T08:13:36.793Z,74.37
2017-07-04T08:14:36.785Z,73.92
2017-07-04T08:15:36.733Z,73.15
2017-07-04T08:16:36.700Z,73.44
2017-07-04T08:17:36.678Z,72.58
2017-07-04T08:18:36.674Z,72.77
2017-07-04T08:19:36.656Z,72.48
2017-07-04T08:20:36.639Z,71.61
2017-07-04T08:21:36.617Z,70.84
2017-07-04T08:22:36.599Z,70.68
2017-07-04T08:23:36.628Z,69.92
2017-07-04T08:24:36.250Z,70.01
2017-07-04T08:25:36.570Z,69.06
2017-07-04T08:26:36.586Z,69.73
2017-07-04T08:27:36.518Z,69.24
2017-07-04T08:28:36.495Z,69.06
2017-07-04T08:29:36.528Z,69.63
2017-07-04T08:30:36.142Z,69.63
2017-07-04T08:31:36.433Z,69.6
2017-07-04T08:32:36.410Z,69.21
2017-07-04T08:33:36.392Z,69.4
2017-07-04T08:34:36.380Z,69.4
2017-07-04T08:35:36.052Z,69.46
2017-07-04T08:36:36.340Z,69.66
2017-07-04T08:37:36.320Z,69.75
2017-07-04T08:38:36.303Z,69.85
2017-07-04T08:39:36.287Z,69.75
2017-07-04T08:40:36.270Z,69.85
2017-07-04T08:41:36.255Z,70.17
2017-07-04T08:42:36.232Z,69.69
2017-07-04T08:43:36.215Z,67.83
2017-07-04T08:44:36.200Z,67
2017-07-04T08:45:36.177Z,65.5
2017-07-04T08:46:36.162Z,64.15
2017-07-04T08:47:36.146Z,63.21
2017-07-04T08:48:36.134Z,63.31
2017-07-04T08:49:36.116Z,63.12
2017-07-04T08:50:36.095Z,62.63
2017-07-04T08:51:36.132Z,62.7
2017-07-04T08:52:36.070Z,62.73
2017-07-04T08:53:36.055Z,61.58
2017-07-04T08:54:36.079Z,61.87
2017-07-04T08:55:36.017Z,61.13
2017-07-04T08:56:35.999Z,60.83
2017-07-04T08:57:35.986Z,61.13
2017-07-04T08:58:35.970Z,60.58
2017-07-04T08:59:36.256Z,60.19
2017-07-04T09:00:35.935Z,60.77
2017-07-04T09:01:35.979Z,60.45
2017-07-04T09:02:35.912Z,59.97
2017-07-04T09:03:35.898Z,59.68
2017-07-04T09:04:35.873Z,59.32
2017-07-04T09:05:36.111Z,59.71
2017-07-04T09:06:35.906Z,58.75
2017-07-04T09:07:35.835Z,57.32
2017-07-04T09:08:35.818Z,57.32
2017-07-04T09:09:35.851Z,55.78
2017-07-04T09:10:35.787Z,55.42
2017-07-04T09:11:35.771Z,54.46
2017-07-04T09:12:35.451Z,51.75
2017-07-04T09:13:35.792Z,52.79
2017-07-04T09:14:35.828Z,53.63
2017-07-04T09:15:35.717Z,54.31
2017-07-04T09:16:35.749Z,55.66
2017-07-04T09:17:35.688Z,55.36
2017-07-04T09:18:35.669Z,54.79
2017-07-04T09:19:35.659Z,54.4
2017-07-04T09:20:35.655Z,53.8
2017-07-04T09:21:35.623Z,54.57
2017-07-04T09:22:35.614Z,54.18
2017-07-04T09:23:35.599Z,54.66
2017-07-04T09:24:35.588Z,54.47
2017-07-04T09:25:35.578Z,54.64
2017-07-04T09:26:35.555Z,54.76
2017-07-04T09:27:35.535Z,54.57
2017-07-04T09:28:35.523Z,54.5
2017-07-04T09:29:35.603Z,54.05
2017-07-04T09:30:35.496Z,51.07
2017-07-04T09:31:35.483Z,50.04
2017-07-04T09:32:35.514Z,48.64
2017-07-04T09:33:35.456Z,48.83
2017-07-04T09:34:35.443Z,49.41
2017-07-04T09:35:35.423Z,49.32
2017-07-04T09:36:35.460Z,48.54
2017-07-04T09:37:35.097Z,48.83
2017-07-04T09:38:35.391Z,48.64
2017-07-04T09:39:35.372Z,48.64
2017-07-04T09:40:35.363Z,48.18
2017-07-04T09:41:35.344Z,47.14
2017-07-04T09:42:35.330Z,46.19
2017-07-04T09:43:35.321Z,46
2017-07-04T09:44:35.312Z,45.71
2017-07-04T09:45:35.297Z,45.9
2017-07-04T09:46:35.286Z,46.08
2017-07-04T09:47:34.966Z,45.88
2017-07-04T09:48:35.258Z,46.53
2017-07-04T09:49:35.256Z,46.36
2017-07-04T09:50:35.237Z,46.56
2017-07-04T09:51:34.916Z,45.88
2017-07-04T09:52:35.212Z,46.09
2017-07-04T09:53:35.198Z,45.71
2017-07-04T09:54:35.199Z,45.83
2017-07-04T09:55:35.182Z,44.47
2017-07-04T09:56:35.168Z,44.27
2017-07-04T09:57:34.852Z,44.57
2017-07-04T09:58:35.153Z,44.37
2017-07-04T09:59:35.141Z,45.13
2017-07-04T10:00:35.127Z,45.51
2017-07-04T10:01:35.114Z,45.68
2017-07-04T10:02:35.104Z,45.59
2017-07-04T10:03:35.142Z,46
2017-07-04T10:04:35.094Z,45.61
2017-07-04T10:05:35.075Z,46
2017-07-04T10:06:35.064Z,46
2017-07-04T10:07:34.741Z,45.73
2017-07-04T10:08:35.055Z,43.62
2017-07-04T10:09:35.024Z,43.26
2017-07-04T10:10:35.071Z,42.96
2017-07-04T10:11:35.006Z,42.19
2017-07-04T10:12:34.996Z,43.16
2017-07-04T10:13:35.045Z,43.72
2017-07-04T10:14:34.978Z,43.82
2017-07-04T10:15:34.965Z,44.4
2017-07-04T10:16:34.953Z,44.37
2017-07-04T10:17:34.954Z,45.03
2017-07-04T10:18:34.627Z,45.71
2017-07-04T10:19:35.174Z,46.66
2017-07-04T10:20:34.977Z,46.73
2017-07-04T10:21:34.896Z,46.73
2017-07-04T10:22:34.891Z,46.63
2017-07-04T10:23:34.876Z,47.58
2017-07-04T10:24:34.864Z,47.48
2017-07-04T10:25:34.901Z,47.28
2017-07-04T10:26:34.834Z,47.48
2017-07-04T10:27:34.517Z,48.06
2017-07-04T10:28:34.815Z,47.58
2017-07-04T10:29:34.493Z,47.48
2017-07-04T10:30:34.789Z,46.53
2017-07-04T10:31:34.785Z,46.08
2017-07-04T10:32:34.767Z,45.88
2017-07-04T10:33:34.758Z,46.39
2017-07-04T10:34:34.756Z,45.71
2017-07-04T10:35:34.728Z,44.86
2017-07-04T10:36:34.410Z,44.76
2017-07-04T10:37:34.708Z,44.09
2017-07-04T10:38:34.697Z,43.52
2017-07-04T10:39:34.687Z,43.82
2017-07-04T10:40:34.676Z,44.18
2017-07-04T10:41:34.663Z,45.61
2017-07-04T10:42:34.714Z,45.9
2017-07-04T10:43:34.649Z,45.51
2017-07-04T10:44:34.630Z,44.37
2017-07-04T10:45:34.621Z,44.09
2017-07-04T10:46:34.614Z,43.72
2017-07-04T10:47:34.608Z,43.82
2017-07-04T10:48:34.591Z,43.82
2017-07-04T10:49:34.588Z,44.1
2017-07-04T10:50:34.568Z,43.62
2017-07-04T10:51:34.568Z,43.33
2017-07-04T10:52:34.548Z,43.79
2017-07-04T10:53:34.543Z,44.35
2017-07-04T10:54:34.527Z,44.93
2017-07-04T10:55:34.515Z,45.78
2017-07-04T10:56:34.506Z,45.88
2017-07-04T10:57:34.494Z,46.34
2017-07-04T10:58:34.485Z,47.69
2017-07-04T10:59:34.472Z,47.41
2017-07-04T11:00:34.459Z,47.67
2017-07-04T11:01:34.445Z,47.6
2017-07-04T11:02:34.432Z,47.86
2017-07-04T11:03:34.109Z,47.96
2017-07-04T11:04:34.409Z,48.25
2017-07-04T11:05:34.392Z,47.58
2017-07-04T11:06:34.379Z,47.67
2017-07-04T11:07:34.371Z,48.81
2017-07-04T11:08:34.357Z,48.71
2017-07-04T11:09:34.342Z,49.1
2017-07-04T11:10:34.020Z,49.1
2017-07-04T11:11:34.317Z,49.1
2017-07-04T11:12:34.298Z,49.19
2017-07-04T11:13:34.297Z,48.61
2017-07-04T11:14:34.277Z,48.81
2017-07-04T11:15:34.254Z,47.96
2017-07-04T11:16:34.247Z,48.93
2017-07-04T11:17:34.226Z,48.64
2017-07-04T11:18:33.908Z,48.54
2017-07-04T11:19:34.247Z,48.74
2017-07-04T11:20:34.237Z,48.35
2017-07-04T11:21:34.168Z,48.52
2017-07-04T11:22:34.157Z,47.94
2017-07-04T11:23:34.145Z,47.74
2017-07-04T11:24:34.133Z,48.69
2017-07-04T11:25:34.114Z,48.59
2017-07-04T11:26:34.098Z,48.79
2017-07-04T11:27:34.084Z,49.17
2017-07-04T11:28:34.077Z,49.07
2017-07-04T11:29:34.054Z,48.71
2017-07-04T11:30:34.037Z,48.9
2017-07-04T11:31:34.023Z,49
2017-07-04T11:32:34.006Z,48.61
2017-07-04T11:33:33.995Z,48.64
2017-07-04T11:34:33.980Z,48.83
2017-07-04T11:35:33.963Z,47.58
2017-07-04T11:36:33.948Z,47.28
2017-07-04T11:37:33.936Z,47.48
2017-07-04T11:38:33.927Z,47.65
2017-07-04T11:39:33.905Z,48.32
2017-07-04T11:40:33.891Z,49
2017-07-04T11:41:33.874Z,49.29
2017-07-04T11:42:33.861Z,49.68
2017-07-04T11:43:34.095Z,49.68
2017-07-04T11:44:33.828Z,49
2017-07-04T11:45:34.026Z,48.71
2017-07-04T11:46:33.795Z,48.81
2017-07-04T11:47:33.783Z,48.74
2017-07-04T11:48:33.766Z,48.93
2017-07-04T11:49:33.749Z,48.74
2017-07-04T11:50:33.734Z,48.74
2017-07-04T11:51:33.719Z,48.83
2017-07-04T11:52:33.709Z,48.61
2017-07-04T11:53:33.688Z,49
2017-07-04T11:54:33.672Z,48.61
2017-07-04T11:55:33.656Z,48.81
2017-07-04T11:56:33.639Z,48.97
2017-07-04T11:57:33.930Z,48.97
2017-07-04T11:58:33.611Z,50.04
2017-07-04T11:59:33.841Z,49.55
2017-07-04T12:00:33.266Z,49.73
2017-07-04T12:01:33.561Z,50.11
2017-07-04T12:02:33.595Z,50.69
2017-07-04T12:03:33.521Z,50.11
2017-07-04T12:04:33.511Z,50.98
2017-07-04T12:05:33.494Z,50.69
2017-07-04T12:06:33.477Z,50.79
2017-07-04T12:07:33.161Z,50.98
2017-07-04T12:08:33.451Z,50.13
2017-07-04T12:09:33.428Z,50.43
2017-07-04T12:10:33.460Z,50.43
2017-07-04T12:11:33.398Z,49.65
2017-07-04T12:12:33.484Z,49.95
2017-07-04T12:13:33.370Z,50.13
2017-07-04T12:14:33.393Z,49.65
2017-07-04T12:15:33.330Z,49.55
2017-07-04T12:16:33.313Z,49.85
2017-07-04T12:17:33.298Z,50.04
2017-07-04T12:18:33.291Z,49.85
2017-07-04T12:19:33.261Z,49.73
2017-07-04T12:20:33.302Z,49.73
2017-07-04T12:21:33.286Z,50.98
2017-07-04T12:22:33.210Z,50.5
2017-07-04T12:23:33.310Z,50.98
2017-07-04T12:24:33.177Z,51.25
2017-07-04T12:25:32.855Z,51.53
2017-07-04T12:26:33.144Z,51.34
2017-07-04T12:27:33.131Z,51.05
2017-07-04T12:28:33.115Z,50.57
2017-07-04T12:29:33.099Z,50.86
2017-07-04T12:30:33.079Z,51.73
2017-07-04T12:31:33.061Z,51.44
2017-07-04T12:32:33.053Z,51.05
2017-07-04T12:33:33.040Z,50.76
2017-07-04T12:34:33.011Z,51.56
2017-07-04T12:35:32.996Z,50.59
2017-07-04T12:36:33.024Z,50.89
2017-07-04T12:37:32.962Z,50.04
2017-07-04T12:38:32.950Z,49.85
2017-07-04T12:39:32.923Z,49.46
2017-07-04T12:40:32.913Z,50.4
2017-07-04T12:41:32.891Z,50.69
2017-07-04T12:42:32.933Z,51.07
2017-07-04T12:43:32.854Z,50.01
2017-07-04T12:44:32.846Z,50.01
2017-07-04T12:45:32.517Z,50.11
2017-07-04T12:46:32.809Z,50.4
2017-07-04T12:47:32.482Z,50.5
2017-07-04T12:48:32.774Z,50.69
2017-07-04T12:49:32.761Z,51.27
2017-07-04T12:50:32.739Z,50.5
2017-07-04T12:51:32.720Z,51.17
2017-07-04T12:52:33.109Z,50.79
2017-07-04T12:53:32.396Z,50.69
2017-07-04T12:54:32.668Z,50.98
2017-07-04T12:55:32.675Z,50.59
2017-07-04T12:56:32.637Z,50.11
2017-07-04T12:57:32.620Z,50.4